Time;durP1;ratioP1;P1;durP2;ratioP2;P2;SDS_P1;SDS_P2;PMS_P1;PMS_P2;Temp;Humidity;BMP_temperature;BMP_pressure;BME280_temperature;BME280_humidity;BME280_pressure;Samples;Min_cycle;Max_cycle;Signal;HPM_P1;HPM_P2
2021/10/05 00:01:43;;;;;;;1.63;0.85;;;12.30;99.90;;;;;;5054644;28;20116;-40
2021/10/05 00:04:09;;;;;;;1.83;0.98;;;12.30;99.90;;;;;;5061466;28;20032;-42
2021/10/05 00:06:34;;;;;;;3.30;1.00;;;12.30;99.90;;;;;;5056501;28;20017;-41
2021/10/05 00:09:03;;;;;;;2.05;0.90;;;12.30;99.90;;;;;;5058343;28;20024;-40
2021/10/05 00:11:29;;;;;;;2.15;1.00;;;12.30;99.90;;;;;;5059124;28;20056;-39
2021/10/05 00:13:59;;;;;;;2.00;0.95;;;12.30;99.90;;;;;;5056298;28;20033;-41
2021/10/05 00:16:24;;;;;;;2.20;1.05;;;12.20;99.90;;;;;;5060239;28;20040;-43
2021/10/05 00:18:50;;;;;;;2.90;1.02;;;12.20;99.90;;;;;;5054377;28;20074;-39
2021/10/05 00:21:17;;;;;;;2.85;0.90;;;12.20;99.90;;;;;;5063200;28;20032;-42
2021/10/05 00:23:43;;;;;;;3.67;1.08;;;12.10;99.90;;;;;;5054296;28;20028;-40
2021/10/05 00:26:15;;;;;;;3.35;1.00;;;12.10;99.90;;;;;;5069212;28;20024;-42
2021/10/05 00:28:40;;;;;;;3.80;1.20;;;12.10;99.90;;;;;;5070576;28;20027;-41
2021/10/05 00:31:07;;;;;;;1.13;0.95;;;12.10;99.90;;;;;;5061473;28;20266;-40
2021/10/05 00:33:33;;;;;;;1.42;1.00;;;12.10;99.90;;;;;;5072753;28;20050;-42
2021/10/05 00:35:58;;;;;;;3.10;0.98;;;12.10;99.90;;;;;;5059619;28;20033;-40
2021/10/05 00:38:24;;;;;;;2.17;1.20;;;12.10;99.90;;;;;;5072282;28;20105;-41
2021/10/05 00:40:52;;;;;;;3.10;1.40;;;12.10;99.90;;;;;;5060127;28;20491;-41
2021/10/05 00:43:17;;;;;;;3.92;1.00;;;12.10;99.90;;;;;;5051920;28;20082;-41
2021/10/05 00:45:43;;;;;;;1.95;1.10;;;12.00;99.90;;;;;;5062662;28;20115;-41
2021/10/05 00:48:08;;;;;;;2.38;1.05;;;12.10;99.90;;;;;;5055354;28;20235;-41
2021/10/05 00:50:34;;;;;;;2.60;1.00;;;12.00;99.90;;;;;;5058730;28;20017;-41
2021/10/05 00:53:00;;;;;;;1.13;1.00;;;12.00;99.90;;;;;;5057492;28;20044;-42
2021/10/05 00:55:25;;;;;;;3.05;1.20;;;12.00;99.90;;;;;;5056502;28;20090;-41
2021/10/05 00:57:52;;;;;;;3.63;1.17;;;12.00;99.90;;;;;;5060215;28;20017;-42
2021/10/05 01:00:19;;;;;;;4.10;1.20;;;12.00;99.90;;;;;;5054163;28;20047;-42
2021/10/05 01:02:45;;;;;;;3.22;1.20;;;12.00;99.90;;;;;;5062923;28;20029;-42
2021/10/05 01:05:11;;;;;;;1.23;1.00;;;11.90;99.90;;;;;;5053198;28;20016;-40
2021/10/05 01:07:37;;;;;;;1.88;0.98;;;11.90;99.90;;;;;;5062513;28;20211;-43
2021/10/05 01:10:03;;;;;;;2.92;1.10;;;11.90;99.90;;;;;;5053320;28;20075;-43
2021/10/05 01:12:29;;;;;;;3.90;1.25;;;11.90;99.90;;;;;;5062389;28;20484;-37
2021/10/05 01:14:54;;;;;;;2.58;1.00;;;11.90;99.90;;;;;;5052045;28;20078;-39
2021/10/05 01:17:29;;;;;;;1.98;1.00;;;11.90;99.90;;;;;;5063510;28;20463;-41
2021/10/05 01:20:03;;;;;;;0.93;0.80;;;11.80;99.90;;;;;;5051504;28;20101;-41
2021/10/05 01:22:29;;;;;;;2.10;1.10;;;11.80;99.90;;;;;;5064057;28;20077;-41
2021/10/05 01:24:54;;;;;;;2.88;1.33;;;11.80;99.90;;;;;;5051334;28;20041;-41
2021/10/05 01:27:20;;;;;;;2.45;1.17;;;11.80;99.90;;;;;;5063696;28;20021;-42
2021/10/05 01:29:45;;;;;;;3.65;1.38;;;11.80;99.90;;;;;;5051894;28;20035;-42
2021/10/05 01:32:11;;;;;;;2.92;1.08;;;11.80;99.90;;;;;;5060748;28;20467;-42
2021/10/05 01:34:36;;;;;;;1.83;0.98;;;11.80;99.90;;;;;;5054304;28;20060;-42
2021/10/05 01:37:05;;;;;;;5.10;1.20;;;11.80;99.90;;;;;;5058085;28;20028;-41
2021/10/05 01:39:38;;;;;;;2.13;0.93;;;11.70;99.90;;;;;;5055230;28;20400;-41
2021/10/05 01:42:12;;;;;;;3.00;1.17;;;11.70;99.90;;;;;;5056660;28;20025;-42
2021/10/05 01:44:39;;;;;;;1.52;1.00;;;11.70;99.90;;;;;;5056991;28;20082;-41
2021/10/05 01:47:06;;;;;;;3.15;1.20;;;11.60;99.90;;;;;;5055188;28;20580;-42
2021/10/05 01:49:32;;;;;;;3.63;1.08;;;11.70;99.90;;;;;;5059001;28;20021;-42
2021/10/05 01:51:57;;;;;;;2.17;1.10;;;11.70;99.90;;;;;;5053217;28;20032;-38
2021/10/05 01:54:23;;;;;;;1.75;1.02;;;11.70;99.90;;;;;;5061010;28;20162;-41
2021/10/05 01:56:49;;;;;;;2.58;1.00;;;11.60;99.90;;;;;;5052977;28;20025;-41
2021/10/05 01:59:16;;;;;;;1.92;0.95;;;11.60;99.90;;;;;;5061590;28;20044;-40
2021/10/05 02:01:44;;;;;;;3.40;1.05;;;11.60;99.90;;;;;;5051463;28;20017;-42
2021/10/05 02:04:10;;;;;;;2.17;1.02;;;11.60;99.90;;;;;;5062877;28;20028;-42
2021/10/05 02:06:39;;;;;;;0.82;0.77;;;11.60;99.90;;;;;;5050247;28;20025;-42
2021/10/05 02:09:07;;;;;;;2.40;0.80;;;11.50;99.90;;;;;;5063603;28;20025;-41
2021/10/05 02:11:32;;;;;;;5.40;1.10;;;11.50;99.90;;;;;;5050498;28;20024;-41
2021/10/05 02:14:02;;;;;;;5.03;0.98;;;11.50;99.90;;;;;;5062237;28;20020;-40
2021/10/05 02:16:28;;;;;;;1.83;1.00;;;11.50;99.90;;;;;;5050771;28;20037;-42
2021/10/05 02:18:54;;;;;;;2.05;1.20;;;11.50;99.90;;;;;;5061729;28;20061;-42
2021/10/05 02:21:19;;;;;;;1.58;0.95;;;11.50;99.90;;;;;;5052107;28;20024;-42
2021/10/05 02:26:32;;;;;;;2.50;1.27;;;11.50;99.90;;;;;;5058521;28;20098;-40
2021/10/05 02:28:58;;;;;;;1.63;1.08;;;11.50;99.90;;;;;;5062049;28;20053;-41
2021/10/05 02:31:23;;;;;;;3.28;1.10;;;11.40;99.90;;;;;;5065943;28;20109;-42
2021/10/05 02:33:49;;;;;;;1.88;1.10;;;11.50;99.90;;;;;;5064968;28;20021;-42
2021/10/05 02:36:14;;;;;;;1.67;0.90;;;11.50;99.90;;;;;;5063112;28;20031;-40
2021/10/05 02:41:15;;;;;;;2.50;1.38;;;11.40;99.90;;;;;;5288943;22;20046;-31
2021/10/05 02:43:44;;;;;;;1.75;1.33;;;11.40;99.90;;;;;;5005050;28;20558;-31
2021/10/05 02:46:09;;;;;;;1.50;0.90;;;11.40;99.90;;;;;;5000975;28;20026;-31
2021/10/05 02:48:38;;;;;;;1.00;0.90;;;11.40;99.90;;;;;;4990402;28;20076;-31
2021/10/05 02:51:03;;;;;;;3.30;1.10;;;11.40;99.90;;;;;;5002507;28;20026;-31
2021/10/05 02:53:29;;;;;;;3.67;1.20;;;11.40;99.90;;;;;;4990651;28;20045;-31
2021/10/05 02:55:55;;;;;;;3.15;1.20;;;11.40;99.90;;;;;;4998412;28;20397;-31
2021/10/05 02:58:20;;;;;;;2.58;1.25;;;11.40;99.90;;;;;;5009742;28;20022;-31
2021/10/05 03:00:49;;;;;;;1.45;1.00;;;11.40;99.90;;;;;;4998363;28;20061;-31
2021/10/05 03:03:14;;;;;;;3.13;1.02;;;11.40;99.90;;;;;;5009655;28;20032;-31
2021/10/05 03:05:42;;;;;;;2.58;1.10;;;11.50;99.90;;;;;;4998063;28;20468;-31
2021/10/05 03:08:08;;;;;;;2.28;1.10;;;11.50;99.90;;;;;;4991288;28;20022;-31
2021/10/05 03:10:35;;;;;;;3.38;0.93;;;11.50;99.90;;;;;;4998950;28;20072;-32
2021/10/05 03:13:01;;;;;;;1.55;0.98;;;11.40;99.90;;;;;;4992671;28;20022;-32
2021/10/05 03:15:27;;;;;;;1.30;0.98;;;11.40;99.90;;;;;;4997783;28;20456;-31
2021/10/05 03:17:52;;;;;;;2.42;1.13;;;11.40;99.90;;;;;;4994864;28;20034;-31
2021/10/05 03:20:18;;;;;;;1.45;1.00;;;11.40;99.90;;;;;;4995084;28;20037;-31
2021/10/05 03:22:46;;;;;;;3.38;1.23;;;11.40;99.90;;;;;;4997602;28;20057;-32
2021/10/05 03:25:12;;;;;;;1.10;0.98;;;11.40;99.90;;;;;;4993788;28;20034;-31
2021/10/05 03:27:37;;;;;;;2.88;1.10;;;11.40;99.90;;;;;;4998596;28;20026;-31
2021/10/05 03:30:09;;;;;;;1.35;1.05;;;11.40;99.90;;;;;;4995860;28;20033;-31
2021/10/05 03:32:38;;;;;;;2.40;1.38;;;11.40;99.90;;;;;;5005121;28;20493;-30
2021/10/05 03:35:04;;;;;;;3.22;1.08;;;11.40;99.90;;;;;;4996219;28;20109;-32
2021/10/05 03:37:29;;;;;;;3.05;1.40;;;11.40;99.90;;;;;;5004907;28;20030;-31
2021/10/05 03:39:55;;;;;;;1.23;1.10;;;11.40;99.90;;;;;;4994729;28;20039;-31
2021/10/05 03:42:23;;;;;;;2.95;1.40;;;11.30;99.90;;;;;;5005886;28;20046;-31
2021/10/05 03:44:49;;;;;;;1.42;1.30;;;11.40;99.90;;;;;;4993909;28;20473;-31
2021/10/05 03:47:14;;;;;;;3.00;1.10;;;11.30;99.90;;;;;;5006423;28;20041;-32
2021/10/05 03:49:42;;;;;;;2.38;1.23;;;11.30;99.90;;;;;;4993823;28;20031;-31
2021/10/05 03:52:11;;;;;;;2.50;1.30;;;11.30;99.90;;;;;;5005159;28;20022;-31
2021/10/05 03:54:36;;;;;;;2.05;1.40;;;11.30;99.90;;;;;;4993782;28;20026;-32
2021/10/05 03:57:02;;;;;;;1.65;1.30;;;11.30;99.90;;;;;;5003150;28;20096;-31
2021/10/05 03:59:28;;;;;;;1.17;1.08;;;11.30;99.90;;;;;;4995980;28;20030;-31
2021/10/05 04:01:53;;;;;;;3.35;1.40;;;11.30;99.90;;;;;;5001099;28;20076;-31
2021/10/05 04:04:25;;;;;;;2.00;1.40;;;11.30;99.90;;;;;;4999029;28;20046;-30
2021/10/05 04:06:50;;;;;;;1.20;1.10;;;11.30;99.90;;;;;;4998618;28;20018;-31
2021/10/05 04:09:22;;;;;;;1.33;1.20;;;11.30;99.90;;;;;;5000968;28;20076;-31
2021/10/05 04:11:57;;;;;;;2.17;1.20;;;11.30;99.90;;;;;;4997139;28;20069;-31
2021/10/05 04:14:22;;;;;;;3.83;1.48;;;11.30;99.90;;;;;;5001571;28;20030;-31
2021/10/05 04:16:48;;;;;;;1.48;1.30;;;11.30;99.90;;;;;;4995510;28;20025;-31
2021/10/05 04:19:16;;;;;;;3.05;1.40;;;11.30;99.90;;;;;;5003553;28;20042;-32
2021/10/05 04:21:42;;;;;;;1.75;1.23;;;11.20;99.90;;;;;;4994564;28;20018;-31
2021/10/05 04:24:08;;;;;;;3.47;1.30;;;11.20;99.90;;;;;;5005145;28;20385;-30
2021/10/05 04:26:34;;;;;;;1.48;1.30;;;11.20;99.90;;;;;;4996956;28;20040;-31
2021/10/05 04:29:02;;;;;;;2.83;1.30;;;11.20;99.90;;;;;;5001778;28;20026;-31
2021/10/05 04:31:30;;;;;;;3.30;1.52;;;11.20;99.90;;;;;;5012932;28;20045;-31
2021/10/05 04:33:56;;;;;;;2.03;1.30;;;11.20;99.90;;;;;;4999660;28;20034;-32
2021/10/05 04:36:21;;;;;;;1.20;1.10;;;11.10;99.90;;;;;;5012950;28;20022;-31
2021/10/05 04:38:47;;;;;;;2.22;1.13;;;11.20;99.90;;;;;;5000391;28;20034;-31
2021/10/05 04:41:12;;;;;;;3.17;1.20;;;11.10;99.90;;;;;;4992650;28;20045;-31
2021/10/05 04:43:38;;;;;;;1.55;1.20;;;11.20;99.90;;;;;;5003171;28;20037;-31
2021/10/05 04:46:06;;;;;;;3.03;1.15;;;11.20;99.90;;;;;;4995790;28;20027;-31
2021/10/05 04:48:34;;;;;;;1.42;1.20;;;11.20;99.90;;;;;;4999207;28;20029;-31
2021/10/05 04:51:00;;;;;;;1.50;1.40;;;11.20;99.90;;;;;;4998224;28;20022;-31
2021/10/05 04:53:25;;;;;;;1.60;1.30;;;11.20;99.90;;;;;;4997779;28;20488;-31
2021/10/05 04:55:51;;;;;;;2.40;1.23;;;11.20;99.90;;;;;;4999092;28;20033;-31
2021/10/05 04:58:16;;;;;;;2.60;1.52;;;11.10;99.90;;;;;;4995451;28;20038;-31
2021/10/05 05:00:45;;;;;;;2.60;1.30;;;11.20;99.90;;;;;;5002687;28;20033;-32
2021/10/05 05:03:10;;;;;;;1.65;1.50;;;11.20;99.90;;;;;;4993584;28;20029;-31
2021/10/05 05:05:39;;;;;;;3.55;1.50;;;11.10;99.90;;;;;;5003334;28;20018;-32
2021/10/05 05:08:07;;;;;;;3.45;1.70;;;11.20;99.90;;;;;;4992997;28;20030;-31
2021/10/05 05:10:33;;;;;;;3.13;1.60;;;11.10;99.90;;;;;;5002751;28;20065;-30
2021/10/05 05:12:58;;;;;;;3.03;1.83;;;11.10;99.90;;;;;;4992970;28;20050;-32
2021/10/05 05:15:24;;;;;;;3.08;1.70;;;11.10;99.90;;;;;;4996761;28;20093;-32
2021/10/05 05:17:49;;;;;;;2.33;1.95;;;11.10;99.90;;;;;;5012113;28;20022;-31
2021/10/05 05:20:15;;;;;;;2.47;1.70;;;11.10;99.90;;;;;;4999752;28;20026;-32
2021/10/05 05:22:42;;;;;;;3.08;1.73;;;11.10;99.90;;;;;;5011050;28;20057;-32
2021/10/05 05:25:08;;;;;;;2.22;1.77;;;11.10;99.90;;;;;;5001034;28;20497;-32
2021/10/05 05:27:37;;;;;;;2.92;1.83;;;11.10;99.90;;;;;;4997087;28;20064;-31
2021/10/05 05:30:03;;;;;;;3.15;2.13;;;11.00;99.90;;;;;;5000117;28;20544;-31
2021/10/05 05:32:29;;;;;;;2.05;1.80;;;11.00;99.90;;;;;;4995689;28;20023;-31
2021/10/05 05:34:55;;;;;;;2.53;2.33;;;11.00;99.90;;;;;;4997489;28;20376;-32
2021/10/05 05:37:24;;;;;;;4.63;2.67;;;11.00;99.90;;;;;;4997803;28;20053;-32
2021/10/05 05:39:50;;;;;;;3.55;2.17;;;11.00;99.90;;;;;;4996106;28;20037;-30
2021/10/05 05:42:15;;;;;;;3.33;2.30;;;11.00;99.90;;;;;;4999729;28;20050;-31
2021/10/05 05:44:41;;;;;;;2.83;2.30;;;11.00;99.90;;;;;;4991954;28;20022;-31
2021/10/05 05:47:07;;;;;;;3.53;2.38;;;11.00;99.90;;;;;;4999735;28;20064;-31
2021/10/05 05:49:33;;;;;;;1.80;1.70;;;11.00;99.90;;;;;;5007495;28;20886;-31
2021/10/05 05:51:58;;;;;;;2.80;2.42;;;11.00;99.90;;;;;;5002228;28;20466;-30
2021/10/05 05:54:24;;;;;;;4.28;2.50;;;11.00;99.90;;;;;;5007532;28;20105;-31
2021/10/05 05:56:50;;;;;;;3.30;2.30;;;11.00;99.90;;;;;;5001740;28;20122;-32
2021/10/05 05:59:16;;;;;;;4.20;2.83;;;11.00;99.90;;;;;;4988971;28;20061;-31
2021/10/05 06:01:41;;;;;;;3.05;2.70;;;11.00;99.90;;;;;;5002640;28;20461;-32
2021/10/05 06:04:07;;;;;;;5.43;2.95;;;11.00;99.90;;;;;;4993202;28;20468;-30
2021/10/05 06:06:35;;;;;;;3.20;2.60;;;11.00;99.90;;;;;;5005820;28;20023;-30
2021/10/05 06:09:03;;;;;;;2.92;2.60;;;11.00;99.90;;;;;;5000998;28;20022;-31
2021/10/05 06:11:32;;;;;;;4.55;2.63;;;11.00;99.90;;;;;;5000189;28;20026;-31
2021/10/05 06:13:57;;;;;;;3.20;2.90;;;11.00;99.90;;;;;;5008537;28;20022;-32
2021/10/05 06:16:23;;;;;;;3.33;3.00;;;11.00;99.90;;;;;;5003710;28;20041;-32
2021/10/05 06:18:49;;;;;;;2.70;2.38;;;11.00;99.90;;;;;;5003096;28;20520;-32
2021/10/05 06:21:17;;;;;;;2.88;2.58;;;11.10;99.90;;;;;;5006165;28;20470;-32
2021/10/05 06:23:43;;;;;;;3.50;2.90;;;11.00;99.90;;;;;;4991075;28;20034;-33
2021/10/05 06:26:09;;;;;;;3.67;3.10;;;11.00;99.90;;;;;;4997164;28;20025;-32
2021/10/05 06:28:43;;;;;;;4.88;2.97;;;11.10;99.90;;;;;;5004120;28;20115;-33
2021/10/05 06:31:08;;;;;;;3.28;2.90;;;11.10;99.90;;;;;;5006770;28;20025;-33
2021/10/05 06:33:34;;;;;;;3.90;2.92;;;11.10;99.90;;;;;;4999955;28;20026;-32
2021/10/05 06:35:59;;;;;;;6.03;3.33;;;11.10;99.90;;;;;;4993353;28;20477;-31
2021/10/05 06:38:31;;;;;;;3.92;3.33;;;11.10;99.90;;;;;;4993011;28;20026;-32
2021/10/05 06:40:58;;;;;;;5.57;4.43;;;11.10;99.90;;;;;;4997280;28;20444;-32
2021/10/05 06:43:23;;;;;;;4.68;4.07;;;11.10;99.90;;;;;;4998424;28;20397;-32
2021/10/05 06:45:49;;;;;;;6.05;3.88;;;11.10;99.90;;;;;;5003323;28;20026;-32
2021/10/05 06:48:15;;;;;;;5.82;4.15;;;11.20;99.90;;;;;;4992966;28;20537;-32
2021/10/05 06:50:41;;;;;;;4.43;3.70;;;11.10;99.90;;;;;;4999302;28;20042;-32
2021/10/05 06:53:07;;;;;;;4.72;3.78;;;11.10;99.90;;;;;;4999337;28;20018;-31
2021/10/05 06:55:32;;;;;;;4.63;3.55;;;11.10;99.90;;;;;;4998489;28;20026;-31
2021/10/05 06:58:00;;;;;;;4.10;3.70;;;11.20;99.90;;;;;;4998535;28;20382;-32
2021/10/05 07:00:26;;;;;;;5.57;4.47;;;11.20;99.90;;;;;;5000291;28;20041;-32
2021/10/05 07:02:52;;;;;;;5.88;4.93;;;11.20;99.90;;;;;;4998944;28;20017;-32
2021/10/05 07:05:21;;;;;;;5.32;4.40;;;11.30;99.90;;;;;;4996979;28;20053;-32
2021/10/05 07:07:49;;;;;;;4.07;3.67;;;11.30;99.90;;;;;;4999748;28;20019;-32
2021/10/05 07:10:18;;;;;;;4.93;4.25;;;11.30;99.90;;;;;;4997918;28;20014;-32
2021/10/05 07:12:43;;;;;;;6.05;4.25;;;11.40;99.90;;;;;;5005345;28;20029;-33
2021/10/05 07:15:10;;;;;;;5.05;4.30;;;11.40;99.90;;;;;;4998453;28;20026;-32
2021/10/05 07:17:38;;;;;;;7.03;4.78;;;11.40;99.90;;;;;;4998988;28;20654;-31
2021/10/05 07:20:06;;;;;;;5.93;4.10;;;11.50;99.90;;;;;;4996058;28;20060;-32
2021/10/05 07:22:32;;;;;;;5.15;4.00;;;11.50;99.90;;;;;;4989604;28;20031;-32
2021/10/05 07:24:57;;;;;;;6.75;4.53;;;11.60;99.90;;;;;;5001528;28;20098;-32
2021/10/05 07:27:24;;;;;;;5.20;4.20;;;11.60;99.90;;;;;;5000150;28;20477;-32
2021/10/05 07:29:50;;;;;;;4.63;4.20;;;11.60;99.90;;;;;;4996725;28;20393;-30
2021/10/05 07:32:16;;;;;;;11.02;5.22;;;11.70;99.90;;;;;;5010217;28;20409;-30
2021/10/05 07:34:42;;;;;;;5.43;4.32;;;11.80;99.90;;;;;;4997562;28;20022;-31
2021/10/05 07:37:09;;;;;;;4.85;4.07;;;12.00;99.90;;;;;;5009686;28;20022;-30
2021/10/05 07:39:35;;;;;;;5.20;4.60;;;12.10;99.90;;;;;;4999052;28;20065;-32
2021/10/05 07:42:06;;;;;;;4.82;4.38;;;12.20;99.90;;;;;;5007875;28;20128;-32
2021/10/05 07:44:33;;;;;;;4.72;4.22;;;12.30;99.90;;;;;;5000015;28;20019;-32
2021/10/05 07:46:59;;;;;;;5.88;4.93;;;12.30;99.90;;;;;;4990770;28;20031;-32
2021/10/05 07:49:26;;;;;;;6.35;4.35;;;12.30;99.90;;;;;;4990565;28;20031;-32
2021/10/05 07:51:52;;;;;;;5.03;4.22;;;12.20;99.90;;;;;;5003448;28;20037;-32
2021/10/05 07:54:18;;;;;;;6.03;3.88;;;12.10;99.90;;;;;;5004768;28;20064;-32
2021/10/05 07:56:43;;;;;;;8.93;4.40;;;12.10;99.90;;;;;;5000936;28;20469;-31
2021/10/05 07:59:09;;;;;;;5.93;4.00;;;12.10;99.90;;;;;;5007707;28;20149;-32
2021/10/05 08:01:37;;;;;;;5.07;4.07;;;12.00;99.90;;;;;;4996749;28;20105;-32
2021/10/05 08:04:03;;;;;;;4.50;4.00;;;12.10;99.90;;;;;;5003315;28;20028;-31
2021/10/05 08:06:29;;;;;;;4.47;3.85;;;12.10;99.90;;;;;;4995703;28;20068;-32
2021/10/05 08:08:54;;;;;;;4.55;3.83;;;12.20;99.90;;;;;;5009881;28;20030;-32
2021/10/05 08:11:21;;;;;;;4.97;3.88;;;12.20;99.90;;;;;;4995941;28;20374;-33
2021/10/05 08:13:47;;;;;;;3.50;3.15;;;12.20;99.90;;;;;;5006223;28;20355;-31
2021/10/05 08:16:13;;;;;;;4.82;3.83;;;12.30;99.90;;;;;;4998660;28;20022;-31
2021/10/05 08:18:38;;;;;;;3.38;3.08;;;12.30;99.90;;;;;;5010800;28;20080;-32
2021/10/05 08:21:07;;;;;;;4.20;3.80;;;12.40;99.90;;;;;;4998974;28;20045;-31
2021/10/05 08:23:35;;;;;;;5.40;4.13;;;12.40;99.90;;;;;;5008831;28;20030;-31
2021/10/05 08:26:00;;;;;;;5.03;3.60;;;12.50;99.90;;;;;;5008604;28;20026;-31
2021/10/05 08:28:26;;;;;;;5.22;3.70;;;12.60;99.90;;;;;;4998270;28;20220;-31
2021/10/05 08:30:52;;;;;;;4.05;3.65;;;12.60;99.90;;;;;;4994336;28;20023;-31
2021/10/05 08:33:18;;;;;;;6.00;3.50;;;12.70;99.90;;;;;;5005808;28;20380;-30
2021/10/05 08:35:44;;;;;;;4.65;3.95;;;12.80;99.90;;;;;;5009245;28;20041;-30
2021/10/05 08:38:09;;;;;;;4.95;3.38;;;12.80;99.90;;;;;;5004152;28;20354;-32
2021/10/05 08:40:41;;;;;;;5.43;3.58;;;12.90;99.90;;;;;;5010162;28;20069;-31
2021/10/05 08:43:06;;;;;;;3.55;2.70;;;13.00;99.90;;;;;;5002908;28;20038;-31
2021/10/05 08:45:38;;;;;;;4.20;3.10;;;13.10;99.90;;;;;;5010652;28;20050;-32
2021/10/05 08:48:04;;;;;;;5.15;3.78;;;13.20;99.90;;;;;;4999017;28;20377;-31
2021/10/05 08:50:29;;;;;;;4.90;3.53;;;13.20;99.90;;;;;;5009847;28;20048;-31
2021/10/05 08:52:55;;;;;;;5.32;3.20;;;13.30;99.90;;;;;;5000803;28;20398;-31
2021/10/05 08:55:20;;;;;;;4.00;2.97;;;13.30;99.90;;;;;;5011474;28;20451;-32
2021/10/05 08:57:48;;;;;;;5.00;3.17;;;13.40;99.90;;;;;;5000188;28;20154;-31
2021/10/05 09:00:14;;;;;;;4.95;3.22;;;13.50;99.90;;;;;;5011886;28;20029;-30
2021/10/05 09:02:51;;;;;;;3.65;3.10;;;13.50;99.90;;;;;;4998729;28;20029;-31
2021/10/05 09:05:17;;;;;;;6.03;2.90;;;13.60;99.90;;;;;;5012491;28;20064;-32
2021/10/05 09:07:48;;;;;;;5.00;3.30;;;13.60;99.90;;;;;;4999461;28;20050;-31
2021/10/05 09:10:17;;;;;;;3.30;2.83;;;13.70;99.90;;;;;;4992735;28;20030;-31
2021/10/05 09:12:42;;;;;;;2.42;2.22;;;13.70;99.90;;;;;;5002031;28;20072;-32
2021/10/05 09:15:12;;;;;;;5.45;2.92;;;13.80;99.90;;;;;;5000812;28;20019;-33
2021/10/05 09:17:38;;;;;;;2.63;2.35;;;13.90;99.90;;;;;;4998658;28;20037;-32
2021/10/05 09:20:20;;;;;;;4.82;2.70;;;13.90;99.90;;;;;;4993911;28;20385;-32
2021/10/05 09:22:58;;;;;;;3.95;2.38;;;14.00;99.90;;;;;;4999319;28;20018;-32
2021/10/05 09:25:39;;;;;;;2.67;2.00;;;14.10;99.90;;;;;;4995319;28;20450;-32
2021/10/05 09:28:30;;;;;;;5.63;3.00;;;14.10;99.90;;;;;;4997257;28;20106;-34
2021/10/05 09:31:04;;;;;;;3.40;2.60;;;14.10;99.90;;;;;;4991067;28;20019;-32
2021/10/05 09:33:30;;;;;;;3.63;2.10;;;14.20;99.90;;;;;;5000844;28;20026;-32
2021/10/05 09:35:56;;;;;;;3.35;2.25;;;14.20;99.90;;;;;;4991494;28;20478;-32
2021/10/05 09:38:27;;;;;;;3.80;2.20;;;14.30;99.90;;;;;;4997895;28;20041;-35
2021/10/05 09:41:09;;;;;;;2.10;1.85;;;14.30;99.90;;;;;;4993170;28;20038;-32
2021/10/05 09:43:35;;;;;;;3.15;1.80;;;14.40;99.90;;;;;;4997220;28;20029;-32
2021/10/05 09:46:12;;;;;;;3.80;2.20;;;14.50;99.90;;;;;;4992217;28;20485;-32
2021/10/05 09:48:37;;;;;;;3.83;1.65;;;14.60;99.90;;;;;;4998998;28;20917;-33
2021/10/05 09:51:18;;;;;;;2.30;1.65;;;14.70;99.90;;;;;;4995740;28;20124;-33
2021/10/05 09:53:44;;;;;;;3.95;1.73;;;14.80;99.90;;;;;;4999282;28;20045;-33
2021/10/05 09:56:12;;;;;;;2.40;1.85;;;14.80;99.90;;;;;;4997198;28;20081;-33
2021/10/05 09:58:38;;;;;;;5.28;1.60;;;14.90;99.90;;;;;;4995822;28;20010;-34
2021/10/05 10:01:04;;;;;;;2.28;1.50;;;15.00;99.90;;;;;;4999335;28;20436;-35
2021/10/05 10:03:33;;;;;;;2.72;1.80;;;15.00;99.90;;;;;;4992344;28;20319;-34
2021/10/05 10:05:59;;;;;;;2.95;1.67;;;15.10;99.90;;;;;;5000317;28;20046;-35
2021/10/05 10:08:33;;;;;;;1.92;1.50;;;15.20;99.90;;;;;;4992413;28;20022;-34
2021/10/05 10:10:59;;;;;;;1.85;1.40;;;15.30;99.90;;;;;;4999854;28;20242;-35
2021/10/05 10:13:24;;;;;;;2.67;1.50;;;15.30;99.90;;;;;;5009320;28;20369;-35
2021/10/05 10:15:55;;;;;;;3.80;1.70;;;15.40;99.90;;;;;;4998977;28;20021;-35
2021/10/05 10:18:22;;;;;;;2.55;1.60;;;15.40;99.90;;;;;;5009132;28;20026;-35
2021/10/05 10:21:02;;;;;;;3.30;1.50;;;15.50;99.90;;;;;;5002557;28;20046;-35
2021/10/05 10:23:29;;;;;;;3.10;1.48;;;15.50;99.90;;;;;;4990944;28;20019;-35
2021/10/05 10:26:07;;;;;;;3.42;1.65;;;15.50;99.90;;;;;;5002845;28;20023;-35
2021/10/05 10:28:46;;;;;;;1.67;1.40;;;15.60;99.90;;;;;;5008080;28;20028;-35
2021/10/05 10:31:30;;;;;;;2.67;1.65;;;15.60;99.90;;;;;;4994904;28;20080;-34
2021/10/05 10:33:56;;;;;;;2.13;1.33;;;15.70;99.90;;;;;;4992008;28;20026;-34
2021/10/05 10:36:31;;;;;;;2.30;1.30;;;15.70;99.90;;;;;;5001056;28;20029;-34
2021/10/05 10:39:08;;;;;;;2.78;1.40;;;15.90;99.90;;;;;;4990509;28;20548;-33
2021/10/05 10:41:38;;;;;;;4.13;1.23;;;16.10;99.90;;;;;;5001548;28;20424;-32
2021/10/05 10:44:06;;;;;;;2.97;1.35;;;16.30;99.90;;;;;;4991030;28;20042;-34
2021/10/05 10:46:35;;;;;;;6.20;1.45;;;16.50;99.90;;;;;;5001551;28;20033;-33
2021/10/05 10:49:03;;;;;;;2.50;1.40;;;16.60;99.90;;;;;;4991751;28;20037;-33
2021/10/05 10:51:32;;;;;;;4.32;1.48;;;16.70;99.90;;;;;;5001906;28;20072;-33
2021/10/05 10:54:00;;;;;;;4.75;1.98;;;16.90;99.90;;;;;;4990327;28;20033;-33
2021/10/05 10:56:31;;;;;;;3.22;1.55;;;17.00;99.90;;;;;;4995510;28;20486;-33
2021/10/05 10:58:59;;;;;;;3.70;1.45;;;17.10;99.90;;;;;;4999445;28;20026;-33
2021/10/05 11:01:45;;;;;;;2.67;1.25;;;17.20;99.90;;;;;;4999033;28;20030;-33
2021/10/05 11:04:13;;;;;;;3.88;1.40;;;17.30;99.90;;;;;;5000632;28;20022;-32
2021/10/05 11:06:42;;;;;;;3.45;1.55;;;17.40;99.90;;;;;;4979836;28;20021;-33
2021/10/05 11:09:08;;;;;;;2.53;1.27;;;17.40;99.90;;;;;;4998201;28;20409;-33
2021/10/05 11:11:35;;;;;;;2.25;1.30;;;17.50;99.90;;;;;;4994526;28;20038;-38
2021/10/05 11:14:03;;;;;;;2.83;1.38;;;17.40;99.90;;;;;;5007235;28;20025;-37
2021/10/05 11:16:30;;;;;;;2.63;1.40;;;17.40;99.90;;;;;;5002256;28;20500;-38
2021/10/05 11:19:11;;;;;;;1.65;1.30;;;17.30;99.90;;;;;;5004778;28;20042;-35
2021/10/05 11:21:41;;;;;;;3.05;1.30;;;17.30;99.90;;;;;;5001339;28;20030;-35
2021/10/05 11:24:08;;;;;;;4.10;2.22;;;17.30;99.90;;;;;;5005415;28;20438;-35
2021/10/05 11:26:36;;;;;;;4.82;1.50;;;17.30;99.90;;;;;;5005342;28;20023;-36
2021/10/05 11:29:04;;;;;;;4.60;1.60;;;17.30;99.90;;;;;;5009562;28;20018;-37
2021/10/05 11:31:48;;;;;;;2.50;1.60;;;17.40;99.90;;;;;;4997015;28;20092;-37
2021/10/05 11:34:15;;;;;;;3.25;1.52;;;17.30;99.90;;;;;;5002524;28;20026;-37
2021/10/05 11:36:41;;;;;;;5.47;1.25;;;17.30;99.90;;;;;;5005531;28;20072;-31
2021/10/05 11:39:08;;;;;;;2.88;1.20;;;17.30;99.90;;;;;;5000338;28;20029;-31
2021/10/05 11:41:36;;;;;;;3.28;1.17;;;17.30;99.90;;;;;;5007328;28;20049;-31
2021/10/05 11:44:12;;;;;;;1.27;1.17;;;17.30;99.90;;;;;;4998062;28;20034;-33
2021/10/05 11:46:50;;;;;;;2.50;1.40;;;17.30;99.90;;;;;;5006478;28;20029;-31
2021/10/05 11:49:19;;;;;;;4.95;1.10;;;17.20;99.90;;;;;;5002234;28;20026;-33
2021/10/05 11:51:45;;;;;;;4.00;1.08;;;17.20;99.90;;;;;;5013000;28;20147;-32
2021/10/05 11:54:22;;;;;;;2.70;1.00;;;17.30;99.90;;;;;;4994880;28;20101;-32
2021/10/05 11:56:48;;;;;;;2.28;1.00;;;17.30;99.90;;;;;;4995072;28;20034;-32
2021/10/05 11:59:33;;;;;;;1.52;0.90;;;17.30;99.90;;;;;;5004846;28;20022;-32
2021/10/05 12:02:12;;;;;;;1.85;0.95;;;17.20;99.90;;;;;;5000494;28;20035;-33
2021/10/05 12:04:40;;;;;;;1.83;1.10;;;17.30;99.90;;;;;;4999899;28;20050;-33
2021/10/05 12:07:19;;;;;;;2.22;1.27;;;17.30;99.90;;;;;;5004429;28;20022;-32
2021/10/05 12:10:03;;;;;;;2.55;1.25;;;17.40;99.90;;;;;;5004530;28;20381;-32
2021/10/05 12:12:33;;;;;;;2.28;0.95;;;17.40;99.90;;;;;;4995860;28;20036;-31
2021/10/05 12:15:01;;;;;;;1.63;0.98;;;17.40;99.90;;;;;;5002257;28;20532;-33
2021/10/05 12:17:27;;;;;;;2.08;1.13;;;17.40;99.90;;;;;;5010624;28;20060;-31
2021/10/05 12:19:55;;;;;;;2.53;1.20;;;17.30;99.90;;;;;;4999882;28;20536;-32
2021/10/05 12:22:25;;;;;;;2.30;1.10;;;17.30;99.90;;;;;;4993717;28;20191;-32
2021/10/05 12:25:02;;;;;;;1.63;0.70;;;17.30;99.90;;;;;;4999904;28;20120;-31
2021/10/05 12:27:31;;;;;;;2.83;0.93;;;17.20;99.90;;;;;;5005401;28;20026;-31
2021/10/05 12:30:09;;;;;;;2.45;0.95;;;17.20;99.90;;;;;;5005281;28;20425;-31
2021/10/05 12:32:43;;;;;;;2.15;0.95;;;17.20;99.90;;;;;;4992651;28;20049;-31
2021/10/05 12:35:37;;;;;;;1.80;1.00;;;17.30;99.90;;;;;;5000375;28;20025;-31
2021/10/05 12:38:26;;;;;;;1.58;1.02;;;17.30;99.90;;;;;;5011920;28;20058;-31
2021/10/05 12:40:57;;;;;;;2.17;1.10;;;17.30;99.90;;;;;;5004522;28;20031;-32
2021/10/05 12:43:36;;;;;;;2.13;1.00;;;17.30;99.90;;;;;;4993386;28;20058;-31
2021/10/05 12:46:05;;;;;;;1.58;1.20;;;17.20;99.90;;;;;;5003504;28;20087;-31
2021/10/05 12:48:42;;;;;;;3.30;1.20;;;17.20;99.90;;;;;;4994101;28;20061;-32
2021/10/05 12:51:10;;;;;;;1.92;1.02;;;17.10;99.90;;;;;;5003837;28;20042;-31
2021/10/05 12:53:43;;;;;;;4.05;1.45;;;17.10;99.90;;;;;;4991974;28;20026;-31
2021/10/05 12:56:09;;;;;;;1.17;0.80;;;17.10;99.90;;;;;;5003949;28;20018;-32
2021/10/05 12:58:36;;;;;;;2.67;1.10;;;17.10;99.90;;;;;;4990815;28;20497;-32